createdAt,value
2023-03-11T00:00:39.667Z,99.90
2023-03-11T00:03:08.659Z,99.90
2023-03-11T00:05:42.037Z,99.90
2023-03-11T00:08:14.163Z,99.90
2023-03-11T00:10:43.300Z,99.90
2023-03-11T00:13:14.858Z,99.90
2023-03-11T00:15:48.791Z,99.90
2023-03-11T00:18:16.292Z,99.90
2023-03-11T00:20:48.225Z,99.90
2023-03-11T00:23:15.689Z,99.90
2023-03-11T00:25:46.161Z,99.90
2023-03-11T00:28:14.173Z,99.90
2023-03-11T00:30:45.820Z,99.90
2023-03-11T00:33:16.301Z,99.90
2023-03-11T00:35:43.981Z,99.90
2023-03-11T00:38:15.020Z,99.90
2023-03-11T00:40:43.225Z,99.90
2023-03-11T00:43:15.559Z,99.90
2023-03-11T00:45:42.515Z,99.90
2023-03-11T00:48:13.272Z,99.90
2023-03-11T00:50:43.218Z,99.90
2023-03-11T00:53:10.440Z,99.90
2023-03-11T00:55:39.276Z,99.90
2023-03-11T00:58:06.984Z,99.90
2023-03-11T01:00:34.350Z,99.90
2023-03-11T01:03:01.492Z,99.90
2023-03-11T01:05:31.178Z,99.90
2023-03-11T01:08:00.670Z,99.90
2023-03-11T01:10:29.775Z,99.90
2023-03-11T01:12:58.900Z,99.90
2023-03-11T01:15:36.814Z,99.90
2023-03-11T01:18:07.441Z,99.90
2023-03-11T01:20:38.111Z,99.90
2023-03-11T01:23:08.004Z,99.90
2023-03-11T01:25:35.681Z,99.90
2023-03-11T01:28:02.464Z,99.90
2023-03-11T01:30:31.628Z,99.90
2023-03-11T01:32:58.646Z,99.90
2023-03-11T01:35:27.244Z,99.90
2023-03-11T01:37:57.615Z,99.90
2023-03-11T01:40:32.304Z,99.90
2023-03-11T01:43:00.428Z,99.90
2023-03-11T01:46:02.511Z,99.90
2023-03-11T01:48:31.861Z,99.90
2023-03-11T01:50:59.160Z,99.90
2023-03-11T01:53:28.484Z,99.90
2023-03-11T01:56:00.143Z,99.90
2023-03-11T01:58:31.364Z,99.90
2023-03-11T02:01:02.898Z,99.90
2023-03-11T02:03:36.639Z,99.90
2023-03-11T02:06:12.674Z,99.90
2023-03-11T02:08:41.433Z,99.90
2023-03-11T02:11:11.552Z,99.90
2023-03-11T02:13:40.744Z,99.90
2023-03-11T02:16:10.538Z,99.90
2023-03-11T02:18:37.846Z,99.90
2023-03-11T02:21:34.251Z,99.90
2023-03-11T02:24:19.247Z,99.90
2023-03-11T02:27:00.090Z,99.90
2023-03-11T02:29:28.672Z,99.90
2023-03-11T02:32:01.433Z,99.90
2023-03-11T02:34:32.722Z,99.90
2023-03-11T02:37:05.158Z,99.90
2023-03-11T02:39:41.637Z,99.90
2023-03-11T02:42:13.867Z,99.90
2023-03-11T02:44:43.868Z,99.90
2023-03-11T02:47:10.990Z,99.90
2023-03-11T02:49:40.294Z,99.90
2023-03-11T02:52:07.017Z,99.90
2023-03-11T02:54:33.834Z,99.90
2023-03-11T02:57:02.737Z,99.90
2023-03-11T02:59:31.661Z,99.90
2023-03-11T03:01:58.615Z,99.90
2023-03-11T03:04:27.451Z,99.90
2023-03-11T03:06:54.105Z,99.90
2023-03-11T03:09:20.757Z,99.90
2023-03-11T03:11:49.621Z,99.90
2023-03-11T03:14:16.611Z,99.90
2023-03-11T03:16:45.475Z,99.90
2023-03-11T03:19:12.173Z,99.90
2023-03-11T03:21:38.785Z,99.90
2023-03-11T03:24:05.765Z,99.90
2023-03-11T03:26:35.549Z,99.90
2023-03-11T03:29:05.376Z,99.90
2023-03-11T03:31:32.291Z,99.90
2023-03-11T03:34:01.260Z,99.90
2023-03-11T03:36:30.440Z,99.90
2023-03-11T03:38:58.865Z,99.90
2023-03-11T03:41:28.497Z,99.90
2023-03-11T03:43:55.250Z,99.90
2023-03-11T03:46:27.451Z,99.90
2023-03-11T03:48:54.114Z,99.90
2023-03-11T03:51:25.371Z,99.90
2023-03-11T03:53:54.283Z,99.90
2023-03-11T03:56:20.900Z,99.90
2023-03-11T03:58:47.569Z,99.90
2023-03-11T04:01:16.350Z,99.90
2023-03-11T04:03:43.123Z,99.90
2023-03-11T04:06:17.781Z,99.90
2023-03-11T04:08:44.770Z,99.90
2023-03-11T04:11:11.970Z,99.90
2023-03-11T04:13:41.297Z,99.90
2023-03-11T04:16:08.413Z,99.90
2023-03-11T04:18:35.154Z,99.90
2023-03-11T04:21:08.615Z,99.90
2023-03-11T04:23:38.011Z,99.90
2023-03-11T04:26:05.120Z,99.90
2023-03-11T04:28:32.156Z,99.90
2023-03-11T04:30:58.893Z,99.90
2023-03-11T04:33:30.574Z,99.90
2023-03-11T04:36:00.054Z,99.90
2023-03-11T04:38:29.932Z,99.90
2023-03-11T04:41:06.469Z,99.90
2023-03-11T04:43:33.526Z,99.90
2023-03-11T04:46:00.219Z,99.90
2023-03-11T04:48:29.072Z,99.90
2023-03-11T04:50:58.052Z,99.90
2023-03-11T04:53:24.696Z,99.90
2023-03-11T04:55:53.852Z,99.90
2023-03-11T04:58:20.937Z,99.90
2023-03-11T05:00:52.064Z,99.90
2023-03-11T05:03:21.296Z,99.90
2023-03-11T05:05:52.806Z,99.90
2023-03-11T05:08:19.474Z,99.90
2023-03-11T05:10:46.847Z,99.90
2023-03-11T05:13:15.939Z,99.90
2023-03-11T05:15:45.799Z,99.90
2023-03-11T05:18:12.766Z,99.90
2023-03-11T05:20:41.797Z,99.90
2023-03-11T05:23:10.595Z,99.90
2023-03-11T05:25:37.513Z,99.90
2023-03-11T05:28:04.525Z,99.90
2023-03-11T05:30:31.226Z,99.90
2023-03-11T05:32:57.996Z,99.90
2023-03-11T05:35:26.953Z,99.90
2023-03-11T05:37:54.810Z,99.90
2023-03-11T05:40:24.427Z,99.90
2023-03-11T05:42:51.877Z,99.90
2023-03-11T05:45:18.560Z,99.90
2023-03-11T05:47:50.122Z,99.90
2023-03-11T05:50:16.842Z,99.90
2023-03-11T05:52:45.683Z,99.90
2023-03-11T05:55:12.531Z,99.90
2023-03-11T05:57:42.687Z,99.90
2023-03-11T06:00:13.103Z,99.90
2023-03-11T06:02:40.719Z,99.90
2023-03-11T06:05:08.858Z,99.90
2023-03-11T06:07:37.129Z,99.90
2023-03-11T06:10:04.986Z,99.90
2023-03-11T06:12:39.397Z,99.90
2023-03-11T06:15:09.631Z,99.90
2023-03-11T06:17:36.437Z,99.90
2023-03-11T06:20:05.719Z,99.90
2023-03-11T06:22:34.601Z,99.90
2023-03-11T06:25:03.676Z,99.90
2023-03-11T06:27:32.616Z,99.90
2023-03-11T06:29:59.308Z,99.90
2023-03-11T06:32:29.606Z,99.90
2023-03-11T06:34:58.679Z,99.90
2023-03-11T06:37:25.870Z,99.90
2023-03-11T06:39:53.539Z,99.90
2023-03-11T06:42:23.897Z,99.90
2023-03-11T06:44:53.137Z,99.90
2023-03-11T06:47:19.786Z,99.90
2023-03-11T06:49:55.145Z,99.90
2023-03-11T06:52:24.353Z,99.90
2023-03-11T06:54:53.552Z,99.90
2023-03-11T06:57:22.700Z,99.90
2023-03-11T06:59:49.553Z,99.90
2023-03-11T07:02:16.542Z,99.90
2023-03-11T07:04:43.211Z,99.90
2023-03-11T07:07:12.041Z,99.90
2023-03-11T07:09:41.093Z,99.90
2023-03-11T07:12:08.053Z,99.90
2023-03-11T07:14:34.758Z,99.90
2023-03-11T07:17:04.528Z,99.90
2023-03-11T07:19:31.256Z,99.90
2023-03-11T07:21:57.960Z,99.90
2023-03-11T07:24:24.584Z,99.90
2023-03-11T07:26:56.038Z,99.90
2023-03-11T07:29:24.898Z,99.90
2023-03-11T07:31:56.231Z,99.90
2023-03-11T07:34:25.274Z,99.90
2023-03-11T07:36:51.895Z,99.90
2023-03-11T07:39:19.072Z,99.90
2023-03-11T07:41:48.665Z,99.90
2023-03-11T07:44:17.049Z,99.90
2023-03-11T07:46:48.596Z,99.90
2023-03-11T07:49:15.270Z,99.90
2023-03-11T07:51:44.770Z,99.90
2023-03-11T07:54:14.433Z,99.90
2023-03-11T07:56:41.408Z,99.90
2023-03-11T07:59:10.221Z,99.90
2023-03-11T08:01:40.505Z,99.90
2023-03-11T08:04:14.526Z,99.90
2023-03-11T08:06:46.055Z,99.90
2023-03-11T08:09:15.357Z,99.90
2023-03-11T08:11:42.283Z,99.90
2023-03-11T08:14:09.229Z,99.90
2023-03-11T08:16:35.950Z,99.90
2023-03-11T08:19:03.079Z,99.90
2023-03-11T08:21:32.054Z,99.90
2023-03-11T08:24:00.548Z,99.90
2023-03-11T08:26:30.068Z,99.90
2023-03-11T08:28:57.953Z,99.90
2023-03-11T08:31:31.097Z,99.90
2023-03-11T08:34:01.065Z,99.90
2023-03-11T08:36:30.138Z,99.90
2023-03-11T08:38:56.948Z,99.90
2023-03-11T08:41:24.053Z,99.90
2023-03-11T08:43:55.732Z,99.90
2023-03-11T08:46:26.538Z,99.90
2023-03-11T08:48:54.127Z,99.90
2023-03-11T08:51:23.988Z,99.90
2023-03-11T08:53:54.445Z,99.90
2023-03-11T08:56:23.648Z,99.90
2023-03-11T08:58:52.869Z,99.90
2023-03-11T09:01:20.360Z,99.90
2023-03-11T09:03:52.416Z,99.90
2023-03-11T09:06:19.242Z,99.90
2023-03-11T09:08:46.897Z,99.90
2023-03-11T09:11:16.791Z,99.90
2023-03-11T09:13:48.481Z,99.90
2023-03-11T09:16:24.521Z,99.90
2023-03-11T09:18:53.622Z,99.90
2023-03-11T09:21:20.731Z,99.90
2023-03-11T09:23:52.508Z,99.90
2023-03-11T09:26:23.791Z,99.90
2023-03-11T09:28:50.431Z,99.90
2023-03-11T09:31:17.964Z,99.90
2023-03-11T09:33:47.635Z,99.90
2023-03-11T09:36:19.580Z,97.80
2023-03-11T09:38:46.709Z,96.60
2023-03-11T09:41:25.964Z,94.90
2023-03-11T09:44:12.267Z,93.40
2023-03-11T09:46:38.913Z,94.60
2023-03-11T09:49:33.639Z,94.80
2023-03-11T09:52:10.708Z,95.80
2023-03-11T09:54:40.961Z,94.60
2023-03-11T09:57:12.622Z,94.70
2023-03-11T09:59:42.687Z,95.00
2023-03-11T10:02:15.869Z,94.40
2023-03-11T10:04:51.579Z,93.10
2023-03-11T10:07:22.088Z,93.30
2023-03-11T10:09:52.782Z,92.40
2023-03-11T10:12:25.801Z,92.10
2023-03-11T10:15:17.642Z,92.40
2023-03-11T10:18:09.471Z,93.90
2023-03-11T10:21:01.441Z,92.10
2023-03-11T10:23:53.038Z,90.90
2023-03-11T10:26:32.783Z,91.60
2023-03-11T10:28:59.394Z,90.30
2023-03-11T10:31:38.010Z,89.10
2023-03-11T10:34:13.900Z,89.40
2023-03-11T10:37:10.297Z,89.10
2023-03-11T10:39:40.727Z,88.70
2023-03-11T10:42:14.199Z,88.80
2023-03-11T10:44:42.998Z,87.70
2023-03-11T10:47:24.317Z,88.80
2023-03-11T10:49:52.541Z,88.40
2023-03-11T10:52:20.015Z,86.90
2023-03-11T10:54:49.124Z,88.70
2023-03-11T10:57:25.484Z,86.80
2023-03-11T10:59:56.231Z,87.70
2023-03-11T11:02:48.783Z,87.80
2023-03-11T11:05:18.197Z,85.50
2023-03-11T11:07:53.034Z,86.70
2023-03-11T11:10:23.430Z,82.40
2023-03-11T11:13:00.794Z,86.30
2023-03-11T11:15:36.384Z,83.30
2023-03-11T11:18:23.287Z,83.70
2023-03-11T11:21:08.551Z,82.60
2023-03-11T11:23:35.183Z,84.00
2023-03-11T11:26:13.639Z,84.80
2023-03-11T11:28:40.459Z,84.60
2023-03-11T11:31:26.132Z,84.10
2023-03-11T11:33:56.942Z,85.70
2023-03-11T11:36:29.494Z,85.50
2023-03-11T11:38:56.925Z,84.80
2023-03-11T11:41:26.011Z,82.00
2023-03-11T11:43:53.086Z,83.00
2023-03-11T11:46:31.125Z,83.80
2023-03-11T11:49:09.573Z,85.80
2023-03-11T11:51:42.570Z,85.50
2023-03-11T11:54:18.604Z,83.00
2023-03-11T11:56:48.050Z,82.20
2023-03-11T11:59:19.852Z,83.20
2023-03-11T12:01:58.202Z,84.00
2023-03-11T12:04:44.468Z,83.40
2023-03-11T12:07:32.287Z,80.00
2023-03-11T12:10:23.465Z,80.30
2023-03-11T12:13:40.983Z,79.50
2023-03-11T12:16:29.108Z,77.90
2023-03-11T12:19:07.366Z,80.60
2023-03-11T12:21:46.205Z,79.80
2023-03-11T12:24:18.632Z,81.40
2023-03-11T12:26:52.166Z,80.50
2023-03-11T12:29:34.010Z,79.50
2023-03-11T12:32:02.407Z,79.70
2023-03-11T12:34:33.519Z,79.60
2023-03-11T12:37:04.227Z,80.60
2023-03-11T12:39:33.857Z,81.70
2023-03-11T12:42:18.360Z,79.80
2023-03-11T12:44:46.467Z,81.70
2023-03-11T12:47:28.751Z,79.50
2023-03-11T12:50:18.759Z,79.90
2023-03-11T12:52:55.290Z,81.20
2023-03-11T12:55:32.041Z,82.00
2023-03-11T12:58:07.157Z,81.20
2023-03-11T13:01:09.550Z,81.40
2023-03-11T13:03:51.225Z,81.00
2023-03-11T13:06:45.852Z,79.50
2023-03-11T13:09:18.325Z,76.60
2023-03-11T13:11:51.334Z,75.50
2023-03-11T13:14:24.024Z,73.30
2023-03-11T13:16:50.924Z,74.70
2023-03-11T13:19:46.848Z,75.60
2023-03-11T13:22:43.112Z,76.10
2023-03-11T13:25:37.539Z,76.80
2023-03-11T13:28:32.059Z,77.70
2023-03-11T13:31:07.018Z,76.40
2023-03-11T13:33:51.251Z,77.20
2023-03-11T13:36:35.933Z,76.30
2023-03-11T13:39:12.481Z,76.60
2023-03-11T13:41:46.498Z,75.80
2023-03-11T13:44:26.187Z,74.40
2023-03-11T13:46:59.954Z,74.40
2023-03-11T13:49:37.083Z,71.60
2023-03-11T13:52:12.578Z,71.10
2023-03-11T13:54:51.628Z,71.00
2023-03-11T13:57:26.285Z,70.20
2023-03-11T14:00:05.797Z,67.70
2023-03-11T14:02:34.560Z,67.70
2023-03-11T14:05:09.281Z,66.80
2023-03-11T14:07:38.568Z,64.70
2023-03-11T14:10:18.804Z,63.00
2023-03-11T14:12:46.263Z,64.10
2023-03-11T14:15:26.842Z,63.70
2023-03-11T14:18:14.333Z,61.10
2023-03-11T14:20:44.073Z,59.80
2023-03-11T14:23:19.076Z,58.10
2023-03-11T14:25:46.008Z,59.20
2023-03-11T14:28:22.625Z,58.00
2023-03-11T14:31:00.449Z,56.80
2023-03-11T14:33:27.662Z,55.40
2023-03-11T14:35:59.868Z,53.20
2023-03-11T14:38:34.585Z,54.00
2023-03-11T14:41:06.351Z,53.90
2023-03-11T14:43:37.567Z,54.00
2023-03-11T14:46:09.705Z,54.10
2023-03-11T14:48:45.848Z,53.30
2023-03-11T14:51:22.244Z,52.00
2023-03-11T14:54:08.307Z,53.70
2023-03-11T14:56:37.256Z,51.80
2023-03-11T14:59:15.588Z,52.20
2023-03-11T15:01:44.317Z,52.30
2023-03-11T15:04:22.881Z,53.70
2023-03-11T15:06:50.547Z,51.90
2023-03-11T15:09:22.854Z,51.70
2023-03-11T15:11:55.359Z,54.30
2023-03-11T15:14:24.837Z,54.30
2023-03-11T15:16:52.764Z,55.10
2023-03-11T15:19:28.583Z,56.90
2023-03-11T15:22:06.079Z,56.80
2023-03-11T15:24:36.257Z,59.40
2023-03-11T15:27:06.401Z,60.60
2023-03-11T15:29:34.824Z,61.70
2023-03-11T15:32:25.480Z,61.90
2023-03-11T15:35:13.008Z,62.50
2023-03-11T15:37:43.877Z,63.30
2023-03-11T15:40:35.236Z,62.40
2023-03-11T15:43:14.994Z,62.00
2023-03-11T15:45:46.612Z,61.00
2023-03-11T15:48:16.040Z,64.60
2023-03-11T15:50:53.344Z,63.00
2023-03-11T15:53:21.659Z,65.10
2023-03-11T15:55:51.682Z,65.80
2023-03-11T15:58:22.400Z,66.60
2023-03-11T16:00:57.666Z,66.90
2023-03-11T16:03:24.703Z,67.30
2023-03-11T16:05:51.468Z,67.00
2023-03-11T16:08:18.180Z,66.70
2023-03-11T16:10:47.324Z,67.30
2023-03-11T16:13:17.756Z,69.00
2023-03-11T16:15:47.171Z,69.00
2023-03-11T16:18:14.116Z,70.80
2023-03-11T16:20:52.993Z,71.90
2023-03-11T16:23:23.665Z,71.00
2023-03-11T16:25:51.160Z,70.40
2023-03-11T16:28:20.333Z,71.50
2023-03-11T16:30:52.610Z,71.70
2023-03-11T16:33:21.796Z,70.20
2023-03-11T16:35:52.906Z,71.10
2023-03-11T16:38:22.941Z,71.90
2023-03-11T16:41:01.070Z,72.10
2023-03-11T16:43:32.008Z,73.60
2023-03-11T16:45:58.649Z,74.30
2023-03-11T16:48:25.644Z,72.90
2023-03-11T16:50:53.364Z,74.10
2023-03-11T16:53:22.457Z,76.20
2023-03-11T16:55:51.983Z,75.90
2023-03-11T16:58:19.229Z,76.80
2023-03-11T17:00:46.098Z,76.60
2023-03-11T17:03:14.170Z,76.70
2023-03-11T17:05:44.284Z,77.50
2023-03-11T17:08:11.099Z,77.90
2023-03-11T17:10:42.640Z,79.40
2023-03-11T17:13:11.497Z,80.00
2023-03-11T17:15:38.487Z,79.90
2023-03-11T17:18:05.722Z,80.30
2023-03-11T17:20:33.941Z,81.00
2023-03-11T17:23:01.097Z,82.00
2023-03-11T17:25:27.718Z,83.00
2023-03-11T17:27:54.363Z,84.20
2023-03-11T17:30:36.368Z,84.80
2023-03-11T17:33:03.720Z,85.50
2023-03-11T17:35:32.849Z,86.70
2023-03-11T17:37:59.494Z,88.00
2023-03-11T17:40:30.369Z,88.80
2023-03-11T17:42:57.051Z,89.40
2023-03-11T17:45:28.469Z,90.00
2023-03-11T17:47:55.150Z,90.50
2023-03-11T17:50:21.930Z,91.10
2023-03-11T17:52:50.801Z,91.30
2023-03-11T17:55:19.720Z,91.60
2023-03-11T17:57:46.380Z,92.10
2023-03-11T18:00:14.725Z,92.60
2023-03-11T18:02:41.817Z,93.10
2023-03-11T18:05:11.213Z,93.70
2023-03-11T18:07:43.625Z,94.30
2023-03-11T18:10:11.917Z,94.70
2023-03-11T18:12:44.865Z,95.30
2023-03-11T18:15:18.888Z,96.00
2023-03-11T18:17:47.072Z,96.60
2023-03-11T18:20:16.461Z,97.20
2023-03-11T18:22:46.793Z,97.80
2023-03-11T18:25:17.177Z,98.10
2023-03-11T18:27:46.314Z,98.70
2023-03-11T18:30:15.242Z,99.20
2023-03-11T18:32:42.016Z,99.70
2023-03-11T18:35:09.192Z,99.90
2023-03-11T18:37:38.211Z,99.90
2023-03-11T18:40:06.878Z,99.90
2023-03-11T18:42:33.800Z,99.90
2023-03-11T18:45:00.523Z,99.90
2023-03-11T18:47:27.177Z,99.90
2023-03-11T18:49:54.796Z,99.90
2023-03-11T18:52:26.167Z,99.90
2023-03-11T18:54:55.100Z,99.90
2023-03-11T18:57:21.796Z,99.90
2023-03-11T18:59:51.977Z,99.90
2023-03-11T19:02:18.815Z,99.90
2023-03-11T19:04:48.017Z,99.90
2023-03-11T19:07:17.227Z,99.90
2023-03-11T19:09:43.889Z,99.90
2023-03-11T19:12:15.136Z,99.90
2023-03-11T19:14:41.887Z,99.90
2023-03-11T19:17:08.543Z,99.90
2023-03-11T19:19:37.746Z,99.90
2023-03-11T19:22:05.574Z,99.90
2023-03-11T19:24:32.213Z,99.90
2023-03-11T19:27:01.106Z,99.90
2023-03-11T19:29:29.055Z,99.90
2023-03-11T19:31:57.930Z,99.90
2023-03-11T19:34:25.357Z,99.90
2023-03-11T19:36:51.995Z,99.90
2023-03-11T19:39:18.721Z,99.90
2023-03-11T19:41:47.989Z,99.90
2023-03-11T19:44:14.691Z,99.90
2023-03-11T19:46:41.437Z,99.90
2023-03-11T19:49:08.128Z,99.90
2023-03-11T19:51:49.165Z,99.90
2023-03-11T19:54:16.826Z,99.90
2023-03-11T19:56:46.322Z,99.90
2023-03-11T19:59:13.037Z,99.90
2023-03-11T20:01:39.943Z,99.90
2023-03-11T20:04:06.739Z,99.90
2023-03-11T20:06:36.057Z,99.90
2023-03-11T20:09:02.777Z,99.90
2023-03-11T20:11:29.464Z,99.90
2023-03-11T20:13:58.397Z,99.90
2023-03-11T20:16:25.062Z,99.90
2023-03-11T20:18:54.222Z,99.90
2023-03-11T20:21:23.287Z,99.90
2023-03-11T20:23:50.220Z,99.90
2023-03-11T20:26:20.351Z,99.90
2023-03-11T20:28:49.759Z,99.90
2023-03-11T20:31:20.855Z,99.90
2023-03-11T20:33:49.317Z,99.90
2023-03-11T20:36:20.868Z,99.90
2023-03-11T20:38:48.987Z,99.90
2023-03-11T20:41:17.883Z,99.90
2023-03-11T20:43:47.452Z,99.90
2023-03-11T20:46:16.387Z,99.90
2023-03-11T20:48:43.092Z,99.90
2023-03-11T20:51:13.784Z,99.90
2023-03-11T20:53:40.843Z,99.90
2023-03-11T20:56:16.143Z,99.90
2023-03-11T20:58:45.669Z,99.90
2023-03-11T21:01:20.966Z,99.90
2023-03-11T21:03:53.920Z,99.90
2023-03-11T21:06:27.138Z,99.90
2023-03-11T21:08:57.617Z,99.90
2023-03-11T21:11:25.719Z,99.90
2023-03-11T21:13:52.789Z,99.90
2023-03-11T21:16:22.946Z,99.90
2023-03-11T21:18:50.003Z,99.90
2023-03-11T21:21:18.010Z,99.90
2023-03-11T21:23:45.752Z,99.90
2023-03-11T21:26:14.345Z,99.90
2023-03-11T21:28:46.412Z,99.90
2023-03-11T21:31:16.973Z,99.90
2023-03-11T21:33:44.058Z,99.90
2023-03-11T21:36:17.371Z,99.90
2023-03-11T21:38:44.568Z,99.90
2023-03-11T21:41:18.199Z,99.90
2023-03-11T21:43:46.126Z,99.90
2023-03-11T21:46:16.985Z,99.90
2023-03-11T21:48:46.120Z,99.90
2023-03-11T21:51:16.894Z,99.90
2023-03-11T21:53:43.898Z,99.90
2023-03-11T21:56:10.867Z,99.90
2023-03-11T21:58:39.777Z,99.90
2023-03-11T22:01:09.846Z,99.90
2023-03-11T22:03:37.478Z,99.90
2023-03-11T22:06:08.235Z,99.90
2023-03-11T22:08:35.848Z,99.90
2023-03-11T22:11:03.854Z,99.90
2023-03-11T22:13:30.676Z,99.90
2023-03-11T22:15:57.455Z,99.90
2023-03-11T22:18:24.325Z,99.90
2023-03-11T22:20:51.171Z,99.90
2023-03-11T22:23:17.824Z,99.90
2023-03-11T22:25:49.278Z,99.90
2023-03-11T22:28:18.112Z,99.90
2023-03-11T22:30:44.784Z,99.90
2023-03-11T22:33:11.476Z,99.90
2023-03-11T22:35:42.864Z,99.90
2023-03-11T22:38:11.789Z,99.90
2023-03-11T22:40:41.834Z,99.90
2023-03-11T22:43:13.165Z,99.90
2023-03-11T22:45:39.925Z,99.90
2023-03-11T22:48:10.985Z,99.90
2023-03-11T22:50:41.663Z,99.90
2023-03-11T22:53:08.845Z,99.90
2023-03-11T22:55:42.557Z,99.90
2023-03-11T22:58:10.271Z,99.90
2023-03-11T23:00:37.166Z,99.90
2023-03-11T23:03:09.124Z,99.90
2023-03-11T23:05:45.875Z,99.90
2023-03-11T23:08:16.109Z,99.90
2023-03-11T23:10:46.085Z,99.90
2023-03-11T23:13:13.224Z,99.90
2023-03-11T23:15:47.565Z,99.90
2023-03-11T23:18:18.406Z,99.90
2023-03-11T23:20:45.506Z,99.90
2023-03-11T23:23:12.855Z,99.90
2023-03-11T23:25:40.512Z,99.90
2023-03-11T23:28:09.633Z,99.90
2023-03-11T23:30:39.122Z,99.90
2023-03-11T23:33:08.195Z,99.90
2023-03-11T23:35:41.677Z,99.90
2023-03-11T23:38:12.984Z,99.90
2023-03-11T23:40:43.044Z,99.90
2023-03-11T23:43:12.030Z,99.90
2023-03-11T23:45:38.713Z,99.90
2023-03-11T23:48:07.958Z,99.90
2023-03-11T23:50:34.637Z,99.90
2023-03-11T23:53:01.283Z,99.90
2023-03-11T23:55:30.074Z,99.90
2023-03-11T23:58:01.381Z,99.90
